sensor_id;sensor_type;location;lat;lon;timestamp;pressure;altitude;pressure_sealevel;temperature;humidity
26697;BME280;14312;52.614;13.496;2023-10-19T00:01:15;99910.13;;;10.46;53.83
26697;BME280;14312;52.614;13.496;2023-10-19T00:04:01;99915.53;;;10.56;53.82
26697;BME280;14312;52.614;13.496;2023-10-19T00:06:48;99906.94;;;10.49;54.08
26697;BME280;14312;52.614;13.496;2023-10-19T00:09:34;99911.47;;;10.49;53.88
26697;BME280;14312;52.614;13.496;2023-10-19T00:12:23;99910.66;;;10.43;53.91
26697;BME280;14312;52.614;13.496;2023-10-19T00:15:10;99903.97;;;10.41;54.01
26697;BME280;14312;52.614;13.496;2023-10-19T00:17:58;99912.25;;;10.44;53.94
26697;BME280;14312;52.614;13.496;2023-10-19T00:20:53;99910.06;;;10.36;54.03
26697;BME280;14312;52.614;13.496;2023-10-19T00:23:46;99909.53;;;10.39;53.74
26697;BME280;14312;52.614;13.496;2023-10-19T00:26:35;99915.41;;;10.41;53.84
26697;BME280;14312;52.614;13.496;2023-10-19T00:29:21;99894.09;;;10.36;54.08
26697;BME280;14312;52.614;13.496;2023-10-19T00:32:16;99869.00;;;10.27;54.26
26697;BME280;14312;52.614;13.496;2023-10-19T00:35:05;99882.31;;;10.32;54.20
26697;BME280;14312;52.614;13.496;2023-10-19T00:38:12;99872.19;;;10.29;54.09
26697;BME280;14312;52.614;13.496;2023-10-19T00:41:07;99867.16;;;10.33;54.13
26697;BME280;14312;52.614;13.496;2023-10-19T00:43:58;99839.69;;;10.22;54.11
26697;BME280;14312;52.614;13.496;2023-10-19T00:46:57;99849.00;;;10.25;53.90
26697;BME280;14312;52.614;13.496;2023-10-19T00:49:49;99820.50;;;10.20;54.29
26697;BME280;14312;52.614;13.496;2023-10-19T00:52:36;99834.41;;;10.32;54.18
26697;BME280;14312;52.614;13.496;2023-10-19T00:55:29;99825.81;;;10.20;54.18
26697;BME280;14312;52.614;13.496;2023-10-19T00:58:16;99825.00;;;10.19;54.28
26697;BME280;14312;52.614;13.496;2023-10-19T01:01:08;99817.09;;;10.30;54.38
26697;BME280;14312;52.614;13.496;2023-10-19T01:03:55;99808.22;;;10.19;54.56
26697;BME280;14312;52.614;13.496;2023-10-19T01:06:44;99802.91;;;10.19;54.48
26697;BME280;14312;52.614;13.496;2023-10-19T01:09:44;99818.91;;;10.24;54.29
26697;BME280;14312;52.614;13.496;2023-10-19T01:12:31;99808.81;;;10.26;54.58
26697;BME280;14312;52.614;13.496;2023-10-19T01:15:18;99806.16;;;10.31;54.72
26697;BME280;14312;52.614;13.496;2023-10-19T01:18:13;99809.09;;;10.30;54.57
26697;BME280;14312;52.614;13.496;2023-10-19T01:21:02;99796.53;;;10.25;54.63
26697;BME280;14312;52.614;13.496;2023-10-19T01:23:51;99796.03;;;10.28;54.48
26697;BME280;14312;52.614;13.496;2023-10-19T01:26:38;99793.91;;;10.30;54.29
26697;BME280;14312;52.614;13.496;2023-10-19T01:29:24;99788.06;;;10.33;54.34
26697;BME280;14312;52.614;13.496;2023-10-19T01:32:14;99780.06;;;10.28;54.55
26697;BME280;14312;52.614;13.496;2023-10-19T01:35:01;99782.19;;;10.31;54.54
26697;BME280;14312;52.614;13.496;2023-10-19T01:37:47;99783.31;;;10.40;54.43
26697;BME280;14312;52.614;13.496;2023-10-19T01:40:36;99774.78;;;10.38;54.48
26697;BME280;14312;52.614;13.496;2023-10-19T01:43:22;99761.94;;;10.30;54.39
26697;BME280;14312;52.614;13.496;2023-10-19T01:46:13;99746.75;;;10.20;54.57
26697;BME280;14312;52.614;13.496;2023-10-19T01:49:00;99754.47;;;10.22;54.44
26697;BME280;14312;52.614;13.496;2023-10-19T01:51:48;99771.03;;;10.29;54.57
26697;BME280;14312;52.614;13.496;2023-10-19T01:54:34;99742.00;;;10.28;54.63
26697;BME280;14312;52.614;13.496;2023-10-19T01:57:23;99736.38;;;10.24;54.62
26697;BME280;14312;52.614;13.496;2023-10-19T02:00:12;99729.38;;;10.13;54.61
26697;BME280;14312;52.614;13.496;2023-10-19T02:03:12;99724.59;;;10.15;55.24
26697;BME280;14312;52.614;13.496;2023-10-19T02:05:58;99709.13;;;10.12;54.31
26697;BME280;14312;52.614;13.496;2023-10-19T02:08:49;99699.53;;;10.11;54.36
26697;BME280;14312;52.614;13.496;2023-10-19T02:11:41;99704.06;;;10.10;54.66
26697;BME280;14312;52.614;13.496;2023-10-19T02:14:27;99705.69;;;10.16;54.99
26697;BME280;14312;52.614;13.496;2023-10-19T02:17:17;99688.34;;;10.04;54.87
26697;BME280;14312;52.614;13.496;2023-10-19T02:20:04;99694.19;;;10.01;54.81
26697;BME280;14312;52.614;13.496;2023-10-19T02:23:10;99700.06;;;10.08;54.87
26697;BME280;14312;52.614;13.496;2023-10-19T02:25:57;99690.44;;;10.02;54.66
26697;BME280;14312;52.614;13.496;2023-10-19T02:28:43;99690.44;;;10.02;55.00
26697;BME280;14312;52.614;13.496;2023-10-19T02:31:30;99687.00;;;10.01;55.07
26697;BME280;14312;52.614;13.496;2023-10-19T02:34:16;99703.78;;;10.07;55.02
26697;BME280;14312;52.614;13.496;2023-10-19T02:37:02;99689.94;;;10.05;55.11
26697;BME280;14312;52.614;13.496;2023-10-19T02:39:48;99668.63;;;10.00;55.13
26697;BME280;14312;52.614;13.496;2023-10-19T02:42:35;99686.72;;;10.03;55.02
26697;BME280;14312;52.614;13.496;2023-10-19T02:45:21;99675.56;;;10.06;55.04
26697;BME280;14312;52.614;13.496;2023-10-19T02:48:07;99680.41;;;10.14;54.87
26697;BME280;14312;52.614;13.496;2023-10-19T02:50:57;99673.97;;;10.05;55.23
26697;BME280;14312;52.614;13.496;2023-10-19T02:53:51;99664.38;;;10.04;55.30
26697;BME280;14312;52.614;13.496;2023-10-19T02:56:37;99651.06;;;10.04;55.18
26697;BME280;14312;52.614;13.496;2023-10-19T02:59:27;99652.16;;;10.08;55.40
26697;BME280;14312;52.614;13.496;2023-10-19T03:02:14;99664.47;;;10.19;55.66
26697;BME280;14312;52.614;13.496;2023-10-19T03:05:01;99653.25;;;10.12;55.15
26697;BME280;14312;52.614;13.496;2023-10-19T03:07:47;99649.50;;;10.13;55.33
26697;BME280;14312;52.614;13.496;2023-10-19T03:10:34;99651.16;;;10.24;55.63
26697;BME280;14312;52.614;13.496;2023-10-19T03:13:27;99633.81;;;10.16;55.08
26697;BME280;14312;52.614;13.496;2023-10-19T03:16:13;99624.50;;;10.14;55.39
26697;BME280;14312;52.614;13.496;2023-10-19T03:19:01;99622.91;;;10.13;55.33
26697;BME280;14312;52.614;13.496;2023-10-19T03:21:47;99639.47;;;10.20;55.26
26697;BME280;14312;52.614;13.496;2023-10-19T03:24:36;99623.75;;;10.18;55.32
26697;BME280;14312;52.614;13.496;2023-10-19T03:27:22;99626.44;;;10.29;55.14
26697;BME280;14312;52.614;13.496;2023-10-19T03:30:08;99611.78;;;10.26;55.29
26697;BME280;14312;52.614;13.496;2023-10-19T03:33:00;99616.06;;;10.32;55.31
26697;BME280;14312;52.614;13.496;2023-10-19T03:35:46;99622.19;;;10.33;55.48
26697;BME280;14312;52.614;13.496;2023-10-19T03:38:32;99617.66;;;10.33;55.38
26697;BME280;14312;52.614;13.496;2023-10-19T03:41:22;99608.59;;;10.29;55.20
26697;BME280;14312;52.614;13.496;2023-10-19T03:44:13;99610.75;;;10.37;55.35
26697;BME280;14312;52.614;13.496;2023-10-19T03:47:20;99596.34;;;10.33;55.35
26697;BME280;14312;52.614;13.496;2023-10-19T03:50:06;99592.13;;;10.37;55.38
26697;BME280;14312;52.614;13.496;2023-10-19T03:52:52;99586.78;;;10.37;55.22
26697;BME280;14312;52.614;13.496;2023-10-19T03:55:39;99584.09;;;10.32;55.10
26697;BME280;14312;52.614;13.496;2023-10-19T03:58:29;99584.13;;;10.37;55.13
26697;BME280;14312;52.614;13.496;2023-10-19T04:01:17;99574.25;;;10.38;55.19
26697;BME280;14312;52.614;13.496;2023-10-19T04:04:05;99570.81;;;10.37;55.28
26697;BME280;14312;52.614;13.496;2023-10-19T04:06:51;99569.22;;;10.36;55.35
26697;BME280;14312;52.614;13.496;2023-10-19T04:09:44;99569.22;;;10.36;55.34
26697;BME280;14312;52.614;13.496;2023-10-19T04:12:45;99561.47;;;10.35;55.48
26697;BME280;14312;52.614;13.496;2023-10-19T04:15:31;99569.22;;;10.36;55.52
26697;BME280;14312;52.614;13.496;2023-10-19T04:18:19;99552.16;;;10.32;55.25
26697;BME280;14312;52.614;13.496;2023-10-19T04:21:05;99564.94;;;10.35;55.36
26697;BME280;14312;52.614;13.496;2023-10-19T04:23:51;99569.22;;;10.36;55.61
26697;BME280;14312;52.614;13.496;2023-10-19T04:26:37;99562.28;;;10.35;55.28
26697;BME280;14312;52.614;13.496;2023-10-19T04:29:23;99561.75;;;10.38;55.42
26697;BME280;14312;52.614;13.496;2023-10-19T04:32:13;99558.56;;;10.36;55.36
26697;BME280;14312;52.614;13.496;2023-10-19T04:35:00;99544.19;;;10.37;55.46
26697;BME280;14312;52.614;13.496;2023-10-19T04:37:47;99542.03;;;10.34;55.57
26697;BME280;14312;52.614;13.496;2023-10-19T04:40:33;99532.44;;;10.33;55.37
26697;BME280;14312;52.614;13.496;2023-10-19T04:43:19;99514.31;;;10.30;55.38
26697;BME280;14312;52.614;13.496;2023-10-19T04:46:10;99522.59;;;10.34;55.60
26697;BME280;14312;52.614;13.496;2023-10-19T04:48:57;99527.63;;;10.30;55.35
26697;BME280;14312;52.614;13.496;2023-10-19T04:51:43;99521.53;;;10.30;55.02
26697;BME280;14312;52.614;13.496;2023-10-19T04:54:29;99530.84;;;10.32;55.54
26697;BME280;14312;52.614;13.496;2023-10-19T04:57:15;99505.03;;;10.23;55.16
26697;BME280;14312;52.614;13.496;2023-10-19T05:00:01;99514.31;;;10.30;55.44
26697;BME280;14312;52.614;13.496;2023-10-19T05:02:47;99505.81;;;10.23;55.53
26697;BME280;14312;52.614;13.496;2023-10-19T05:05:33;99512.22;;;10.32;55.81
26697;BME280;14312;52.614;13.496;2023-10-19T05:08:25;99499.97;;;10.21;55.63
26697;BME280;14312;52.614;13.496;2023-10-19T05:11:11;99491.97;;;10.21;55.44
26697;BME280;14312;52.614;13.496;2023-10-19T05:14:03;99474.94;;;10.17;55.68
26697;BME280;14312;52.614;13.496;2023-10-19T05:16:51;99502.09;;;10.19;55.46
26697;BME280;14312;52.614;13.496;2023-10-19T05:19:38;99502.63;;;10.21;55.34
26697;BME280;14312;52.614;13.496;2023-10-19T05:22:24;99499.44;;;10.19;55.61
26697;BME280;14312;52.614;13.496;2023-10-19T05:25:13;99504.22;;;10.22;55.45
26697;BME280;14312;52.614;13.496;2023-10-19T05:27:59;99496.22;;;10.17;55.67
26697;BME280;14312;52.614;13.496;2023-10-19T05:30:46;99500.47;;;10.18;55.55
26697;BME280;14312;52.614;13.496;2023-10-19T05:33:34;99508.47;;;10.18;55.58
26697;BME280;14312;52.614;13.496;2023-10-19T05:36:20;99501.53;;;10.17;55.67
26697;BME280;14312;52.614;13.496;2023-10-19T05:39:06;99505.22;;;10.16;55.52
26697;BME280;14312;52.614;13.496;2023-10-19T05:41:54;99509.78;;;10.15;55.72
26697;BME280;14312;52.614;13.496;2023-10-19T05:44:40;99502.63;;;10.21;55.70
26697;BME280;14312;52.614;13.496;2023-10-19T05:47:26;99505.22;;;10.16;55.54
26697;BME280;14312;52.614;13.496;2023-10-19T05:50:12;99495.13;;;10.13;55.59
26697;BME280;14312;52.614;13.496;2023-10-19T05:53:02;99498.88;;;10.17;55.83
26697;BME280;14312;52.614;13.496;2023-10-19T05:55:49;99502.56;;;10.11;55.73
26697;BME280;14312;52.614;13.496;2023-10-19T05:58:35;99481.53;;;10.04;55.92
26697;BME280;14312;52.614;13.496;2023-10-19T06:01:21;99494.59;;;10.06;55.79
26697;BME280;14312;52.614;13.496;2023-10-19T06:04:08;99485.53;;;10.07;55.91
26697;BME280;14312;52.614;13.496;2023-10-19T06:06:54;99500.72;;;10.11;55.96
26697;BME280;14312;52.614;13.496;2023-10-19T06:09:40;99488.22;;;10.12;55.89
26697;BME280;14312;52.614;13.496;2023-10-19T06:12:26;99502.56;;;10.16;56.16
26697;BME280;14312;52.614;13.496;2023-10-19T06:15:13;99487.41;;;10.11;56.29
26697;BME280;14312;52.614;13.496;2023-10-19T06:17:59;99477.56;;;10.12;56.08
26697;BME280;14312;52.614;13.496;2023-10-19T06:20:45;99471.97;;;10.13;56.15
26697;BME280;14312;52.614;13.496;2023-10-19T06:23:31;99466.41;;;10.20;56.22
26697;BME280;14312;52.614;13.496;2023-10-19T06:26:17;99454.66;;;10.16;56.03
26697;BME280;14312;52.614;13.496;2023-10-19T06:29:03;99453.63;;;10.17;56.40
26697;BME280;14312;52.614;13.496;2023-10-19T06:31:50;99457.38;;;10.26;56.21
26697;BME280;14312;52.614;13.496;2023-10-19T06:34:36;99447.25;;;10.18;56.23
26697;BME280;14312;52.614;13.496;2023-10-19T06:37:22;99455.75;;;10.15;56.20
26697;BME280;14312;52.614;13.496;2023-10-19T06:40:09;99447.75;;;10.15;56.12
26697;BME280;14312;52.614;13.496;2023-10-19T06:42:58;99454.16;;;10.14;56.32
26697;BME280;14312;52.614;13.496;2023-10-19T06:45:44;99470.69;;;10.21;56.35
26697;BME280;14312;52.614;13.496;2023-10-19T06:48:30;99462.16;;;10.19;56.46
26697;BME280;14312;52.614;13.496;2023-10-19T06:51:16;99465.91;;;10.28;56.60
26697;BME280;14312;52.614;13.496;2023-10-19T06:54:16;99440.84;;;10.19;57.58
26697;BME280;14312;52.614;13.496;2023-10-19T06:57:02;99447.22;;;10.23;56.78
26697;BME280;14312;52.614;13.496;2023-10-19T06:59:48;99439.28;;;10.28;56.37
26697;BME280;14312;52.614;13.496;2023-10-19T07:02:34;99435.00;;;10.22;56.58
26697;BME280;14312;52.614;13.496;2023-10-19T07:05:21;99447.25;;;10.33;56.51
26697;BME280;14312;52.614;13.496;2023-10-19T07:08:08;99437.13;;;10.25;56.40
26697;BME280;14312;52.614;13.496;2023-10-19T07:10:54;99419.28;;;10.26;56.57
26697;BME280;14312;52.614;13.496;2023-10-19T07:13:40;99412.91;;;10.22;56.57
26697;BME280;14312;52.614;13.496;2023-10-19T07:16:26;99430.72;;;10.31;56.55
26697;BME280;14312;52.614;13.496;2023-10-19T07:19:12;99433.94;;;10.28;56.68
26697;BME280;14312;52.614;13.496;2023-10-19T07:21:59;99425.69;;;10.25;56.89
26697;BME280;14312;52.614;13.496;2023-10-19T07:24:49;99419.81;;;10.33;56.69
26697;BME280;14312;52.614;13.496;2023-10-19T07:27:36;99413.44;;;10.29;56.60
26697;BME280;14312;52.614;13.496;2023-10-19T07:30:22;99395.06;;;10.27;56.81
26697;BME280;14312;52.614;13.496;2023-10-19T07:33:13;99405.16;;;10.30;56.71
26697;BME280;14312;52.614;13.496;2023-10-19T07:36:12;99422.22;;;10.34;57.36
26697;BME280;14312;52.614;13.496;2023-10-19T07:39:00;99414.22;;;10.39;56.90
26697;BME280;14312;52.614;13.496;2023-10-19T07:41:46;99407.84;;;10.35;56.80
26697;BME280;14312;52.614;13.496;2023-10-19T07:44:32;99409.44;;;10.31;56.89
26697;BME280;14312;52.614;13.496;2023-10-19T07:47:18;99406.75;;;10.31;56.91
26697;BME280;14312;52.614;13.496;2023-10-19T07:50:05;99419.03;;;10.37;56.72
26697;BME280;14312;52.614;13.496;2023-10-19T07:52:52;99422.22;;;10.34;56.64
26697;BME280;14312;52.614;13.496;2023-10-19T07:55:39;99421.69;;;10.37;56.97
26697;BME280;14312;52.614;13.496;2023-10-19T07:58:26;99419.53;;;10.39;56.79
26697;BME280;14312;52.614;13.496;2023-10-19T08:01:12;99424.88;;;10.49;57.23
26697;BME280;14312;52.614;13.496;2023-10-19T08:03:58;99414.22;;;10.39;57.51
26697;BME280;14312;52.614;13.496;2023-10-19T08:06:44;99400.34;;;10.47;57.40
26697;BME280;14312;52.614;13.496;2023-10-19T08:09:30;99417.13;;;10.53;57.16
26697;BME280;14312;52.614;13.496;2023-10-19T08:12:21;99416.34;;;10.57;57.21
26697;BME280;14312;52.614;13.496;2023-10-19T08:15:09;99416.28;;;10.68;57.42
26697;BME280;14312;52.614;13.496;2023-10-19T08:18:00;99408.31;;;10.63;57.27
26697;BME280;14312;52.614;13.496;2023-10-19T08:20:46;99411.47;;;10.75;57.22
26697;BME280;14312;52.614;13.496;2023-10-19T08:23:34;99379.00;;;10.68;57.14
26697;BME280;14312;52.614;13.496;2023-10-19T08:26:20;99391.75;;;10.76;57.17
26697;BME280;14312;52.614;13.496;2023-10-19T08:29:08;99384.31;;;10.78;57.29
26697;BME280;14312;52.614;13.496;2023-10-19T08:31:58;99382.19;;;10.80;57.26
26697;BME280;14312;52.614;13.496;2023-10-19T08:34:44;99386.41;;;10.86;57.23
26697;BME280;14312;52.614;13.496;2023-10-19T08:37:31;99384.25;;;10.93;57.11
26697;BME280;14312;52.614;13.496;2023-10-19T08:40:17;99381.56;;;10.98;57.03
26697;BME280;14312;52.614;13.496;2023-10-19T08:43:04;99363.44;;;10.95;57.08
26697;BME280;14312;52.614;13.496;2023-10-19T08:45:50;99371.44;;;11.00;56.97
26697;BME280;14312;52.614;13.496;2023-10-19T08:48:37;99375.41;;;11.03;57.18
26697;BME280;14312;52.614;13.496;2023-10-19T08:51:23;99384.13;;;11.18;57.12
26697;BME280;14312;52.614;13.496;2023-10-19T08:54:12;99356.69;;;11.13;57.10
26697;BME280;14312;52.614;13.496;2023-10-19T08:56:58;99350.53;;;11.17;57.23
26697;BME280;14312;52.614;13.496;2023-10-19T08:59:45;99348.41;;;11.19;56.84
26697;BME280;14312;52.614;13.496;2023-10-19T09:02:32;99343.03;;;11.29;57.05
26697;BME280;14312;52.614;13.496;2023-10-19T09:05:21;99333.66;;;11.32;57.16
26697;BME280;14312;52.614;13.496;2023-10-19T09:08:17;99360.00;;;11.44;57.09
26697;BME280;14312;52.614;13.496;2023-10-19T09:11:13;99357.84;;;11.46;57.35
26697;BME280;14312;52.614;13.496;2023-10-19T09:13:59;99353.56;;;11.50;57.17
26697;BME280;14312;52.614;13.496;2023-10-19T09:16:54;99371.31;;;11.64;57.59
26697;BME280;14312;52.614;13.496;2023-10-19T09:19:45;99367.34;;;11.62;57.01
26697;BME280;14312;52.614;13.496;2023-10-19T09:22:35;99357.69;;;11.66;57.09
26697;BME280;14312;52.614;13.496;2023-10-19T09:25:22;99354.75;;;11.67;56.84
26697;BME280;14312;52.614;13.496;2023-10-19T09:28:08;99352.31;;;11.76;57.03
26697;BME280;14312;52.614;13.496;2023-10-19T09:30:57;99346.44;;;11.79;56.42
26697;BME280;14312;52.614;13.496;2023-10-19T09:33:46;99329.91;;;11.77;56.59
26697;BME280;14312;52.614;13.496;2023-10-19T09:36:33;99313.88;;;11.77;56.83
26697;BME280;14312;52.614;13.496;2023-10-19T09:39:20;99329.84;;;11.82;56.69
26697;BME280;14312;52.614;13.496;2023-10-19T09:42:08;99323.16;;;11.85;56.84
26697;BME280;14312;52.614;13.496;2023-10-19T09:44:59;99329.78;;;11.92;56.52
26697;BME280;14312;52.614;13.496;2023-10-19T09:47:51;99328.97;;;11.92;56.61
26697;BME280;14312;52.614;13.496;2023-10-19T09:50:38;99322.38;;;11.84;56.50
26697;BME280;14312;52.614;13.496;2023-10-19T09:53:28;99324.50;;;11.82;56.67
26697;BME280;14312;52.614;13.496;2023-10-19T09:56:26;99351.66;;;11.89;56.89
26697;BME280;14312;52.614;13.496;2023-10-19T09:59:26;99338.38;;;11.84;56.85
26697;BME280;14312;52.614;13.496;2023-10-19T10:02:15;99340.53;;;11.82;56.68
26697;BME280;14312;52.614;13.496;2023-10-19T10:05:03;99334.38;;;11.82;56.85
26697;BME280;14312;52.614;13.496;2023-10-19T10:11:25;99314.41;;;11.79;57.00
26697;BME280;14312;52.614;13.496;2023-10-19T10:14:26;99335.38;;;11.91;56.98
26697;BME280;14312;52.614;13.496;2023-10-19T10:17:18;99317.56;;;11.81;56.70
26697;BME280;14312;52.614;13.496;2023-10-19T10:23:16;99334.63;;;11.85;57.28
26697;BME280;14312;52.614;13.496;2023-10-19T10:26:02;99339.19;;;11.85;56.65
26697;BME280;14312;52.614;13.496;2023-10-19T10:29:09;99333.50;;;11.91;56.94
26697;BME280;14312;52.614;13.496;2023-10-19T10:31:57;99330.16;;;11.75;56.51
26697;BME280;14312;52.614;13.496;2023-10-19T10:34:53;99309.88;;;11.74;56.82
26697;BME280;14312;52.614;13.496;2023-10-19T10:37:53;99289.09;;;11.71;57.00
26697;BME280;14312;52.614;13.496;2023-10-19T10:40:47;99271.75;;;11.69;57.03
26697;BME280;14312;52.614;13.496;2023-10-19T10:43:33;99280.78;;;11.73;56.82
26697;BME280;14312;52.614;13.496;2023-10-19T10:46:29;99272.56;;;11.69;56.74
26697;BME280;14312;52.614;13.496;2023-10-19T10:49:15;99271.22;;;11.72;56.64
26697;BME280;14312;52.614;13.496;2023-10-19T10:52:02;99278.63;;;11.80;56.80
26697;BME280;14312;52.614;13.496;2023-10-19T10:54:48;99257.84;;;11.77;56.94
26697;BME280;14312;52.614;13.496;2023-10-19T10:57:34;99267.44;;;11.73;56.99
26697;BME280;14312;52.614;13.496;2023-10-19T11:00:20;99287.94;;;11.83;57.10
26697;BME280;14312;52.614;13.496;2023-10-19T11:03:08;99281.34;;;11.75;56.88
26697;BME280;14312;52.614;13.496;2023-10-19T11:06:02;99294.63;;;11.80;57.11
26697;BME280;14312;52.614;13.496;2023-10-19T11:08:48;99294.06;;;11.83;57.12
26697;BME280;14312;52.614;13.496;2023-10-19T11:11:38;99278.63;;;11.80;57.15
26697;BME280;14312;52.614;13.496;2023-10-19T11:14:24;99269.53;;;11.81;56.76
26697;BME280;14312;52.614;13.496;2023-10-19T11:17:12;99259.44;;;11.78;56.64
26697;BME280;14312;52.614;13.496;2023-10-19T11:19:59;99276.13;;;11.89;56.88
26697;BME280;14312;52.614;13.496;2023-10-19T11:22:49;99276.25;;;11.79;56.91
26697;BME280;14312;52.614;13.496;2023-10-19T11:25:36;99280.72;;;11.83;56.75
26697;BME280;14312;52.614;13.496;2023-10-19T11:28:23;99270.66;;;11.75;56.75
26697;BME280;14312;52.614;13.496;2023-10-19T11:31:19;99270.13;;;11.78;57.37
26697;BME280;14312;52.614;13.496;2023-10-19T11:34:06;99271.47;;;11.75;56.87
26697;BME280;14312;52.614;13.496;2023-10-19T11:36:53;99255.19;;;11.72;57.03
26697;BME280;14312;52.614;13.496;2023-10-19T11:39:42;99264.75;;;11.73;57.09
26697;BME280;14312;52.614;13.496;2023-10-19T11:42:28;99266.38;;;11.79;57.15
26697;BME280;14312;52.614;13.496;2023-10-19T11:45:14;99264.19;;;11.81;57.02
26697;BME280;14312;52.614;13.496;2023-10-19T11:48:02;99233.84;;;11.72;57.03
26697;BME280;14312;52.614;13.496;2023-10-19T11:50:48;99224.28;;;11.66;57.23
26697;BME280;14312;52.614;13.496;2023-10-19T11:53:35;99224.25;;;11.71;57.16
26697;BME280;14312;52.614;13.496;2023-10-19T11:56:22;99242.91;;;11.76;57.12
26697;BME280;14312;52.614;13.496;2023-10-19T11:59:11;99245.56;;;11.76;57.26
26697;BME280;14312;52.614;13.496;2023-10-19T12:01:58;99233.84;;;11.72;57.29
26697;BME280;14312;52.614;13.496;2023-10-19T12:04:47;99226.44;;;11.64;57.45
26697;BME280;14312;52.614;13.496;2023-10-19T12:07:33;99220.25;;;11.68;57.45
26697;BME280;14312;52.614;13.496;2023-10-19T12:10:25;99216.06;;;11.62;58.00
26697;BME280;14312;52.614;13.496;2023-10-19T12:13:19;99226.41;;;11.69;57.83
26697;BME280;14312;52.614;13.496;2023-10-19T12:16:05;99208.59;;;11.59;57.65
26697;BME280;14312;52.614;13.496;2023-10-19T12:18:51;99221.66;;;11.61;57.44
26697;BME280;14312;52.614;13.496;2023-10-19T12:21:37;99224.84;;;11.63;57.75
26697;BME280;14312;52.614;13.496;2023-10-19T12:24:30;99234.94;;;11.66;57.84
26697;BME280;14312;52.614;13.496;2023-10-19T12:27:16;99227.06;;;11.56;57.76
26697;BME280;14312;52.614;13.496;2023-10-19T12:30:04;99220.66;;;11.57;58.03
26697;BME280;14312;52.614;13.496;2023-10-19T12:33:03;99218.53;;;11.54;58.02
26697;BME280;14312;52.614;13.496;2023-10-19T12:35:57;99222.50;;;11.56;58.25
26697;BME280;14312;52.614;13.496;2023-10-19T12:38:43;99220.13;;;11.55;58.25
26697;BME280;14312;52.614;13.496;2023-10-19T12:41:29;99214.19;;;11.63;58.37
26697;BME280;14312;52.614;13.496;2023-10-19T12:44:15;99204.63;;;11.57;58.05
26697;BME280;14312;52.614;13.496;2023-10-19T12:47:01;99204.97;;;11.50;58.26
26697;BME280;14312;52.614;13.496;2023-10-19T12:49:50;99199.06;;;11.53;58.25
26697;BME280;14312;52.614;13.496;2023-10-19T12:52:36;99206.84;;;11.50;58.14
26697;BME280;14312;52.614;13.496;2023-10-19T12:55:23;99216.97;;;11.48;58.31
26697;BME280;14312;52.614;13.496;2023-10-19T12:58:12;99222.31;;;11.48;58.05
26697;BME280;14312;52.614;13.496;2023-10-19T13:01:01;99205.84;;;11.41;58.42
26697;BME280;14312;52.614;13.496;2023-10-19T13:03:48;99212.78;;;11.42;58.45
26697;BME280;14312;52.614;13.496;2023-10-19T13:06:37;99218.91;;;11.42;58.43
26697;BME280;14312;52.614;13.496;2023-10-19T13:09:25;99215.50;;;11.36;58.50
26697;BME280;14312;52.614;13.496;2023-10-19T13:12:16;99213.38;;;11.33;58.42
26697;BME280;14312;52.614;13.496;2023-10-19T13:15:04;99206.16;;;11.34;58.72
26697;BME280;14312;52.614;13.496;2023-10-19T13:17:53;99205.38;;;11.33;58.74
26697;BME280;14312;52.614;13.496;2023-10-19T13:20:39;99209.16;;;11.27;58.55
26697;BME280;14312;52.614;13.496;2023-10-19T13:23:32;99191.03;;;11.24;58.82
26697;BME280;14312;52.614;13.496;2023-10-19T13:26:24;99204.34;;;11.29;59.05
26697;BME280;14312;52.614;13.496;2023-10-19T13:29:12;99204.34;;;11.29;59.18
26697;BME280;14312;52.614;13.496;2023-10-19T13:31:58;99181.44;;;11.28;59.13
26697;BME280;14312;52.614;13.496;2023-10-19T13:34:44;99203.78;;;11.32;59.36
26697;BME280;14312;52.614;13.496;2023-10-19T13:37:30;99197.44;;;11.28;59.46
26697;BME280;14312;52.614;13.496;2023-10-19T13:40:16;99211.44;;;11.39;59.59
26697;BME280;14312;52.614;13.496;2023-10-19T13:43:02;99193.38;;;11.36;59.63
26697;BME280;14312;52.614;13.496;2023-10-19T13:45:52;99187.72;;;11.37;59.54
26697;BME280;14312;52.614;13.496;2023-10-19T13:48:39;99159.97;;;11.38;59.40
26697;BME280;14312;52.614;13.496;2023-10-19T13:51:25;99179.59;;;11.53;59.51
26697;BME280;14312;52.614;13.496;2023-10-19T13:54:11;99178.03;;;11.47;59.42
26697;BME280;14312;52.614;13.496;2023-10-19T13:56:57;99164.97;;;11.45;59.55
26697;BME280;14312;52.614;13.496;2023-10-19T13:59:43;99182.84;;;11.45;59.49
26697;BME280;14312;52.614;13.496;2023-10-19T14:02:29;99180.66;;;11.52;59.39
26697;BME280;14312;52.614;13.496;2023-10-19T14:05:15;99179.66;;;11.48;59.25
26697;BME280;14312;52.614;13.496;2023-10-19T14:08:03;99178.03;;;11.47;59.37
26697;BME280;14312;52.614;13.496;2023-10-19T14:10:52;99171.19;;;11.41;59.43
26697;BME280;14312;52.614;13.496;2023-10-19T14:13:39;99175.44;;;11.42;59.14
26697;BME280;14312;52.614;13.496;2023-10-19T14:16:28;99189.84;;;11.41;59.15
26697;BME280;14312;52.614;13.496;2023-10-19T14:19:14;99196.72;;;11.47;59.40
26697;BME280;14312;52.614;13.496;2023-10-19T14:22:00;99193.03;;;11.43;59.57
26697;BME280;14312;52.614;13.496;2023-10-19T14:24:47;99187.22;;;11.35;59.50
26697;BME280;14312;52.614;13.496;2023-10-19T14:27:33;99178.38;;;11.40;59.62
26697;BME280;14312;52.614;13.496;2023-10-19T14:30:24;99162.72;;;11.33;59.86
26697;BME280;14312;52.614;13.496;2023-10-19T14:33:10;99172.03;;;11.36;59.77
26697;BME280;14312;52.614;13.496;2023-10-19T14:35:56;99163.50;;;11.34;59.41
26697;BME280;14312;52.614;13.496;2023-10-19T14:38:43;99171.22;;;11.35;59.74
26697;BME280;14312;52.614;13.496;2023-10-19T14:41:30;99180.78;;;11.42;59.90
26697;BME280;14312;52.614;13.496;2023-10-19T14:44:17;99175.50;;;11.36;59.68
26697;BME280;14312;52.614;13.496;2023-10-19T14:47:03;99177.63;;;11.34;59.71